Jamesville, New York
Current Conditions -  °F | °C
As of 9:54 PM on Saturday 25 Oct 2014 (Local Time) from KSYR Reporting Station
Broken Clouds Broken Clouds  
Wind Chill: 54°   Ceiling: 7000
Heat Index: 54°   Visibility: 10mi
Dew Point: 47°   Wind: 7mph
Humidity: 77%   Direction: 200°SSW
Pressure: 29.57"   Gusts: NA
Location:  42.99°N, 76.07°W
Report Text: KSYR 260154Z 20006KT 10SM BKN070 BKN250 12/08 A2957 RMK AO2 SLP010 T01220083
Loading
Personal Weather Stations






























Interactive Weather Map
Tropical Storm Tracking
New forecast layout! Learn more

10-Day Weather Forecast

Advertisements
Track Severe Weather on mobile